createdAt,value
2023-05-16T00:01:01.774Z,3.35
2023-05-16T00:03:31.965Z,4.43
2023-05-16T00:06:02.701Z,3.70
2023-05-16T00:08:32.979Z,4.30
2023-05-16T00:11:05.753Z,3.95
2023-05-16T00:13:35.765Z,4.07
2023-05-16T00:16:05.784Z,5.22
2023-05-16T00:18:37.792Z,4.15
2023-05-16T00:21:08.073Z,4.13
2023-05-16T00:23:38.893Z,4.43
2023-05-16T00:26:11.605Z,3.65
2023-05-16T00:28:44.435Z,4.45
2023-05-16T00:31:14.468Z,4.03
2023-05-16T00:33:44.692Z,4.50
2023-05-16T00:36:14.709Z,4.82
2023-05-16T00:38:44.764Z,3.58
2023-05-16T00:41:17.497Z,4.80
2023-05-16T00:43:47.802Z,5.38
2023-05-16T00:46:18.293Z,5.20
2023-05-16T00:48:48.416Z,4.70
2023-05-16T00:51:18.969Z,5.05
2023-05-16T00:53:49.056Z,4.38
2023-05-16T00:56:21.804Z,5.78
2023-05-16T00:58:51.997Z,5.93
2023-05-16T01:01:23.905Z,5.78
2023-05-16T01:03:56.145Z,6.03
2023-05-16T01:06:26.353Z,5.82
2023-05-16T01:08:56.439Z,5.45
2023-05-16T01:11:49.070Z,5.03
2023-05-16T01:14:36.425Z,5.85
2023-05-16T01:17:11.734Z,4.70
2023-05-16T01:20:06.536Z,6.70
2023-05-16T01:22:46.272Z,5.70
2023-05-16T01:25:31.652Z,5.80
2023-05-16T01:28:06.005Z,6.15
2023-05-16T01:30:39.033Z,6.18
2023-05-16T01:33:09.119Z,5.25
2023-05-16T01:35:41.495Z,5.43
2023-05-16T01:38:16.823Z,5.43
2023-05-16T01:40:54.221Z,5.45
2023-05-16T01:43:32.860Z,6.03
2023-05-16T01:46:06.933Z,5.88
2023-05-16T01:48:42.753Z,5.95
2023-05-16T01:51:13.651Z,4.85
2023-05-16T01:53:45.747Z,6.03
2023-05-16T01:56:19.461Z,6.38
2023-05-16T01:58:53.367Z,5.60
2023-05-16T02:01:23.466Z,6.20
2023-05-16T02:03:54.442Z,5.53
2023-05-16T02:06:26.095Z,5.60
2023-05-16T02:08:56.182Z,5.25
2023-05-16T02:11:26.306Z,5.93
2023-05-16T02:13:59.053Z,6.55
2023-05-16T02:16:29.403Z,6.55
2023-05-16T02:18:59.469Z,6.55
2023-05-16T02:21:29.553Z,5.47
2023-05-16T02:23:59.572Z,6.55
2023-05-16T02:26:30.337Z,6.45
2023-05-16T02:29:02.976Z,5.57
2023-05-16T02:31:34.259Z,6.32
2023-05-16T02:34:04.781Z,6.03
2023-05-16T02:36:36.221Z,5.85
2023-05-16T02:39:08.919Z,6.05
2023-05-16T02:41:38.939Z,7.00
2023-05-16T02:44:11.745Z,6.75
2023-05-16T02:46:41.923Z,6.28
2023-05-16T02:49:13.258Z,6.22
2023-05-16T02:51:43.294Z,6.28
2023-05-16T02:54:13.305Z,5.80
2023-05-16T02:56:43.344Z,6.35
2023-05-16T02:59:16.978Z,6.30
2023-05-16T03:01:47.042Z,5.63
2023-05-16T03:04:17.134Z,5.82
2023-05-16T03:06:47.166Z,5.90
2023-05-16T03:09:17.139Z,5.57
2023-05-16T03:11:47.142Z,5.68
2023-05-16T03:14:19.844Z,5.97
2023-05-16T03:16:49.876Z,6.55
2023-05-16T03:19:20.097Z,6.38
2023-05-16T03:21:50.329Z,5.82
2023-05-16T03:24:23.199Z,6.07
2023-05-16T03:26:53.440Z,6.53
2023-05-16T03:29:27.260Z,6.05
2023-05-16T03:31:57.668Z,7.70
2023-05-16T03:34:27.748Z,7.13
2023-05-16T03:36:57.746Z,7.70
2023-05-16T03:39:27.900Z,6.72
2023-05-16T03:41:58.026Z,6.45
2023-05-16T03:44:30.672Z,6.18
2023-05-16T03:47:00.668Z,6.82
2023-05-16T03:49:31.089Z,5.97
2023-05-16T03:52:01.296Z,6.95
2023-05-16T03:54:31.281Z,6.18
2023-05-16T03:57:01.630Z,6.75
2023-05-16T03:59:34.840Z,7.25
2023-05-16T04:02:04.936Z,6.43
2023-05-16T04:04:34.960Z,6.10
2023-05-16T04:07:05.181Z,6.22
2023-05-16T04:09:35.292Z,6.22
2023-05-16T04:12:05.270Z,7.28
2023-05-16T04:14:38.171Z,5.60
2023-05-16T04:17:08.655Z,6.82
2023-05-16T04:19:38.844Z,6.55
2023-05-16T04:22:08.864Z,6.78
2023-05-16T04:24:38.895Z,6.07
2023-05-16T04:27:10.824Z,5.70
2023-05-16T04:29:43.511Z,7.05
2023-05-16T04:32:13.540Z,5.93
2023-05-16T04:34:45.525Z,5.60
2023-05-16T04:37:15.544Z,7.07
2023-05-16T04:39:45.659Z,5.50
2023-05-16T04:42:16.616Z,5.78
2023-05-16T04:44:50.440Z,5.13
2023-05-16T04:47:20.534Z,5.95
2023-05-16T04:49:50.553Z,6.22
2023-05-16T04:52:20.556Z,5.70
2023-05-16T04:54:53.392Z,5.25
2023-05-16T04:57:23.854Z,5.18
2023-05-16T04:59:56.576Z,5.45
2023-05-16T05:02:27.495Z,5.68
2023-05-16T05:04:57.554Z,5.32
2023-05-16T05:07:29.343Z,5.00
2023-05-16T05:09:59.365Z,6.15
2023-05-16T05:12:30.162Z,5.72
2023-05-16T05:15:03.006Z,5.22
2023-05-16T05:17:33.177Z,5.07
2023-05-16T05:20:07.053Z,5.95
2023-05-16T05:22:37.086Z,4.75
2023-05-16T05:25:07.759Z,4.18
2023-05-16T05:27:37.748Z,5.45
2023-05-16T05:30:11.730Z,5.07
2023-05-16T05:32:41.870Z,5.10
2023-05-16T05:35:12.318Z,4.78
2023-05-16T05:37:42.293Z,4.72
2023-05-16T05:40:13.234Z,5.78
2023-05-16T05:42:45.384Z,5.07
2023-05-16T05:45:19.724Z,4.82
2023-05-16T05:47:49.723Z,4.63
2023-05-16T05:50:20.008Z,4.88
2023-05-16T05:52:50.046Z,5.22
2023-05-16T05:55:20.205Z,4.45
2023-05-16T05:57:50.413Z,4.43
2023-05-16T06:00:23.498Z,4.22
2023-05-16T06:02:53.853Z,4.28
2023-05-16T06:05:24.174Z,4.85
2023-05-16T06:07:54.285Z,5.13
2023-05-16T06:10:24.270Z,4.25
2023-05-16T06:12:54.838Z,4.10
2023-05-16T06:15:28.839Z,4.90
2023-05-16T06:17:59.529Z,4.30
2023-05-16T06:20:29.665Z,3.75
2023-05-16T06:22:59.638Z,3.95
2023-05-16T06:25:30.647Z,3.85
2023-05-16T06:28:00.677Z,4.18
2023-05-16T06:30:33.333Z,3.70
2023-05-16T06:33:03.321Z,3.78
2023-05-16T06:35:33.376Z,3.63
2023-05-16T06:38:03.388Z,3.90
2023-05-16T06:40:33.434Z,3.80
2023-05-16T06:43:03.518Z,4.10
2023-05-16T06:45:36.662Z,4.30
2023-05-16T06:48:07.236Z,3.67
2023-05-16T06:50:38.327Z,4.05
2023-05-16T06:53:08.469Z,4.28
2023-05-16T06:55:38.539Z,3.70
2023-05-16T06:58:08.736Z,4.22
2023-05-16T07:00:41.892Z,4.00
2023-05-16T07:03:12.137Z,3.75
2023-05-16T07:05:42.259Z,3.95
2023-05-16T07:08:12.920Z,3.65
2023-05-16T07:10:42.923Z,3.47
2023-05-16T07:13:12.988Z,3.55
2023-05-16T07:15:45.621Z,4.18
2023-05-16T07:18:15.726Z,3.80
2023-05-16T07:20:46.077Z,4.05
2023-05-16T07:23:16.140Z,3.50
2023-05-16T07:25:46.344Z,3.42
2023-05-16T07:28:16.379Z,4.15
2023-05-16T07:30:49.081Z,3.92
2023-05-16T07:33:19.100Z,4.10
2023-05-16T07:35:50.021Z,3.80
2023-05-16T07:38:20.660Z,3.80
2023-05-16T07:40:51.017Z,3.92
2023-05-16T07:43:21.249Z,3.92
2023-05-16T07:45:53.984Z,4.35
2023-05-16T07:48:24.040Z,3.67
2023-05-16T07:50:55.716Z,3.10
2023-05-16T07:53:26.013Z,3.85
2023-05-16T07:55:56.461Z,3.45
2023-05-16T07:58:26.551Z,4.43
2023-05-16T08:00:59.292Z,4.22
2023-05-16T08:03:29.491Z,4.13
2023-05-16T08:05:59.781Z,4.32
2023-05-16T08:08:29.912Z,4.82
2023-05-16T08:10:59.988Z,4.75
2023-05-16T08:13:30.055Z,4.80
2023-05-16T08:16:02.846Z,5.40
2023-05-16T08:18:33.195Z,5.00
2023-05-16T08:21:06.035Z,6.28
2023-05-16T08:23:36.555Z,5.93
2023-05-16T08:26:06.872Z,5.40
2023-05-16T08:28:36.936Z,6.25
2023-05-16T08:31:09.679Z,5.95
2023-05-16T08:33:39.810Z,6.38
2023-05-16T08:36:10.338Z,5.72
2023-05-16T08:38:40.413Z,5.93
2023-05-16T08:41:10.721Z,6.18
2023-05-16T08:43:40.831Z,6.13
2023-05-16T08:46:13.592Z,6.20
2023-05-16T08:48:45.920Z,6.45
2023-05-16T08:51:16.134Z,5.82
2023-05-16T08:53:49.026Z,5.78
2023-05-16T08:56:20.246Z,5.95
2023-05-16T08:58:50.315Z,5.68
2023-05-16T09:01:23.318Z,5.30
2023-05-16T09:03:54.186Z,5.65
2023-05-16T09:06:25.123Z,5.57
2023-05-16T09:08:55.611Z,6.03
2023-05-16T09:11:26.195Z,5.93
2023-05-16T09:13:56.286Z,6.10
2023-05-16T09:16:28.970Z,6.03
2023-05-16T09:19:00.197Z,5.55
2023-05-16T09:21:32.148Z,6.35
2023-05-16T09:24:06.590Z,6.15
2023-05-16T09:26:37.184Z,6.35
2023-05-16T09:29:14.108Z,7.85
2023-05-16T09:31:46.834Z,8.32
2023-05-16T09:34:16.920Z,7.18
2023-05-16T09:36:46.983Z,7.50
2023-05-16T09:39:18.889Z,7.50
2023-05-16T09:41:49.435Z,7.80
2023-05-16T09:44:21.521Z,10.07
2023-05-16T09:46:54.275Z,7.80
2023-05-16T09:49:24.864Z,7.03
2023-05-16T09:51:55.143Z,8.35
2023-05-16T09:54:34.761Z,9.23
2023-05-16T09:57:05.066Z,8.35
2023-05-16T09:59:39.041Z,8.73
2023-05-16T10:02:11.876Z,8.85
2023-05-16T10:04:41.960Z,9.02
2023-05-16T10:07:14.166Z,8.65
2023-05-16T10:09:44.816Z,9.43
2023-05-16T10:12:16.789Z,9.05
2023-05-16T10:14:50.250Z,9.45
2023-05-16T10:17:23.196Z,9.77
2023-05-16T10:19:54.179Z,9.18
2023-05-16T10:22:25.085Z,9.50
2023-05-16T10:25:04.150Z,10.02
2023-05-16T10:27:34.475Z,8.98
2023-05-16T10:30:08.300Z,9.82
2023-05-16T10:32:42.858Z,9.70
2023-05-16T10:35:14.016Z,10.68
2023-05-16T10:37:44.638Z,10.52
2023-05-16T10:40:15.762Z,10.82
2023-05-16T10:42:48.624Z,14.45
2023-05-16T10:45:22.926Z,12.57
2023-05-16T10:48:00.126Z,14.20
2023-05-16T10:50:37.591Z,21.50
2023-05-16T10:53:18.422Z,19.77
2023-05-16T10:55:52.569Z,20.63
2023-05-16T10:58:27.217Z,14.13
2023-05-16T11:01:19.137Z,13.13
2023-05-16T11:04:10.509Z,11.38
2023-05-16T11:06:58.223Z,18.42
2023-05-16T11:09:30.173Z,17.35
2023-05-16T11:12:03.108Z,13.63
2023-05-16T11:14:39.261Z,14.25
2023-05-16T11:17:14.205Z,14.35
2023-05-16T11:19:48.948Z,16.23
2023-05-16T11:22:27.055Z,15.02
2023-05-16T11:24:59.474Z,19.63
2023-05-16T11:27:31.708Z,18.38
2023-05-16T11:30:16.024Z,16.80
2023-05-16T11:32:47.410Z,17.65
2023-05-16T11:35:23.028Z,16.95
2023-05-16T11:37:53.532Z,17.73
2023-05-16T11:40:23.593Z,16.23
2023-05-16T11:42:53.667Z,15.35
2023-05-16T11:45:26.026Z,16.23
2023-05-16T11:47:56.345Z,13.82
2023-05-16T11:50:29.087Z,18.30
2023-05-16T11:52:59.496Z,16.75
2023-05-16T11:58:04.929Z,15.23
2023-05-16T12:00:34.959Z,12.85
2023-05-16T12:03:08.428Z,12.15
2023-05-16T12:05:41.490Z,14.27
2023-05-16T12:08:14.032Z,14.40
2023-05-16T12:10:44.162Z,12.68
2023-05-16T12:13:14.470Z,12.70
2023-05-16T12:15:44.694Z,13.85
2023-05-16T12:18:14.886Z,12.27
2023-05-16T12:20:47.778Z,12.45
2023-05-16T12:23:18.267Z,11.35
2023-05-16T12:25:49.782Z,11.85
2023-05-16T12:28:19.848Z,11.13
2023-05-16T12:30:50.199Z,12.18
2023-05-16T12:33:20.393Z,12.73
2023-05-16T12:35:56.301Z,13.40
2023-05-16T12:38:26.822Z,11.55
2023-05-16T12:41:01.879Z,11.80
2023-05-16T12:43:31.977Z,10.93
2023-05-16T12:46:02.122Z,11.88
2023-05-16T12:48:36.084Z,13.18
2023-05-16T12:51:26.424Z,12.13
2023-05-16T12:54:06.068Z,11.48
2023-05-16T12:56:41.991Z,12.75
2023-05-16T12:59:12.489Z,13.05
2023-05-16T13:01:44.727Z,13.77
2023-05-16T13:04:19.390Z,12.48
2023-05-16T13:06:58.481Z,12.77
2023-05-16T13:09:32.689Z,12.98
2023-05-16T13:12:03.457Z,14.65
2023-05-16T13:14:33.512Z,15.07
2023-05-16T13:17:04.790Z,16.30
2023-05-16T13:19:34.836Z,15.15
2023-05-16T13:22:07.819Z,14.18
2023-05-16T13:24:37.880Z,15.60
2023-05-16T13:27:08.847Z,13.20
2023-05-16T13:29:38.939Z,14.85
2023-05-16T13:32:09.342Z,16.25
2023-05-16T13:34:40.587Z,15.43
2023-05-16T13:37:13.382Z,13.60
2023-05-16T13:39:43.474Z,14.18
2023-05-16T13:42:13.659Z,13.18
2023-05-16T13:44:45.060Z,14.25
2023-05-16T13:47:15.161Z,14.73
2023-05-16T13:49:45.200Z,16.13
2023-05-16T13:52:17.944Z,16.67
2023-05-16T13:54:48.009Z,17.27
2023-05-16T13:57:18.136Z,17.25
2023-05-16T14:00:17.658Z,18.15
2023-05-16T14:02:42.522Z,20.00
2023-05-16T14:05:13.217Z,18.38
2023-05-16T14:07:46.940Z,20.17
2023-05-16T14:10:17.148Z,18.52
2023-05-16T14:12:47.218Z,19.42
2023-05-16T14:15:17.256Z,17.83
2023-05-16T14:17:47.627Z,18.08
2023-05-16T14:20:17.694Z,15.32
2023-05-16T14:22:50.354Z,14.13
2023-05-16T14:25:20.844Z,19.27
2023-05-16T14:27:51.295Z,17.50
2023-05-16T14:30:21.374Z,18.35
2023-05-16T14:32:51.504Z,18.30
2023-05-16T14:35:21.933Z,19.48
2023-05-16T14:37:54.677Z,17.63
2023-05-16T14:40:24.803Z,19.35
2023-05-16T14:42:54.936Z,19.73
2023-05-16T14:45:25.007Z,19.40
2023-05-16T14:47:55.438Z,18.23
2023-05-16T14:50:25.886Z,17.55
2023-05-16T14:52:58.568Z,15.95
2023-05-16T14:55:28.955Z,18.17
2023-05-16T14:58:00.023Z,23.20
2023-05-16T15:00:30.943Z,16.73
2023-05-16T15:03:01.361Z,20.73
2023-05-16T15:05:31.643Z,21.67
2023-05-16T15:08:04.513Z,20.05
2023-05-16T15:10:34.566Z,21.73
2023-05-16T15:13:04.741Z,20.38
2023-05-16T15:15:35.093Z,20.23
2023-05-16T15:18:05.195Z,19.70
2023-05-16T15:20:35.315Z,19.70
2023-05-16T15:23:08.030Z,19.60
2023-05-16T15:25:38.094Z,21.30
2023-05-16T15:28:08.458Z,24.65
2023-05-16T15:30:38.504Z,24.55
2023-05-16T15:33:08.643Z,22.23
2023-05-16T15:35:38.796Z,20.30
2023-05-16T15:38:11.584Z,21.42
2023-05-16T15:40:41.658Z,25.20
2023-05-16T15:43:11.713Z,23.02
2023-05-16T15:45:42.309Z,20.80
2023-05-16T15:48:12.397Z,20.00
2023-05-16T15:50:43.628Z,15.68
2023-05-16T15:53:16.285Z,22.92
2023-05-16T15:55:48.126Z,23.23
2023-05-16T15:58:19.586Z,23.05
2023-05-16T16:00:50.880Z,24.58
2023-05-16T16:03:21.241Z,22.35
2023-05-16T16:05:51.617Z,24.02
2023-05-16T16:08:24.525Z,22.65
2023-05-16T16:10:54.573Z,19.05
2023-05-16T16:13:24.748Z,20.83
2023-05-16T16:15:54.986Z,19.73
2023-05-16T16:18:25.071Z,20.63
2023-05-16T16:20:56.545Z,20.77
2023-05-16T16:23:29.273Z,19.75
2023-05-16T16:25:59.325Z,20.48
2023-05-16T16:28:29.473Z,20.85
2023-05-16T16:30:59.563Z,21.52
2023-05-16T16:33:29.710Z,22.13
2023-05-16T16:35:59.802Z,23.10
2023-05-16T16:38:32.495Z,22.90
2023-05-16T16:41:02.564Z,19.88
2023-05-16T16:43:32.669Z,23.67
2023-05-16T16:46:02.790Z,22.38
2023-05-16T16:48:34.344Z,23.60
2023-05-16T16:51:05.352Z,23.17
2023-05-16T16:53:38.204Z,22.70
2023-05-16T16:56:11.148Z,24.65
2023-05-16T16:58:41.281Z,23.90
2023-05-16T17:01:12.760Z,24.10
2023-05-16T17:03:43.058Z,21.95
2023-05-16T17:06:13.162Z,22.15
2023-05-16T17:08:46.531Z,20.80
2023-05-16T17:11:22.851Z,20.48
2023-05-16T17:13:59.282Z,19.85
2023-05-16T17:16:29.666Z,20.23
2023-05-16T17:18:59.800Z,18.30
2023-05-16T17:21:29.936Z,22.52
2023-05-16T17:24:02.637Z,19.40
2023-05-16T17:26:32.771Z,18.88
2023-05-16T17:29:04.536Z,19.48
2023-05-16T17:31:34.668Z,18.30
2023-05-16T17:34:04.792Z,17.73
2023-05-16T17:36:34.877Z,18.15
2023-05-16T17:39:10.144Z,17.83
2023-05-16T17:41:40.516Z,17.05
2023-05-16T17:44:10.635Z,17.95
2023-05-16T17:46:42.652Z,18.92
2023-05-16T17:49:13.487Z,19.08
2023-05-16T17:51:50.751Z,20.83
2023-05-16T17:54:24.368Z,18.10
2023-05-16T17:56:54.936Z,20.98
2023-05-16T17:59:25.039Z,18.77
2023-05-16T18:01:55.433Z,21.25
2023-05-16T18:04:25.639Z,16.77
2023-05-16T18:06:56.454Z,19.27
2023-05-16T18:09:29.146Z,19.40
2023-05-16T18:12:00.730Z,19.05
2023-05-16T18:14:30.818Z,17.13
2023-05-16T18:17:00.877Z,16.08
2023-05-16T18:19:31.076Z,17.42
2023-05-16T18:22:01.454Z,17.33
2023-05-16T18:24:34.089Z,18.10
2023-05-16T18:27:04.657Z,17.52
2023-05-16T18:29:34.734Z,19.13
2023-05-16T18:32:04.834Z,17.85
2023-05-16T18:34:34.969Z,15.95
2023-05-16T18:37:05.025Z,19.08
2023-05-16T18:39:37.950Z,16.85
2023-05-16T18:42:08.209Z,17.73
2023-05-16T18:44:38.289Z,17.73
2023-05-16T18:47:08.942Z,16.40
2023-05-16T18:49:39.515Z,16.40
2023-05-16T18:52:10.474Z,15.68
2023-05-16T18:54:43.148Z,14.38
2023-05-16T18:57:13.424Z,16.20
2023-05-16T18:59:43.454Z,15.10
2023-05-16T19:02:13.516Z,14.13
2023-05-16T19:04:43.719Z,14.75
2023-05-16T19:07:13.783Z,16.13
2023-05-16T19:09:47.157Z,15.55
2023-05-16T19:12:17.188Z,17.23
2023-05-16T19:14:47.340Z,17.08
2023-05-16T19:17:17.360Z,16.75
2023-05-16T19:19:47.448Z,17.80
2023-05-16T19:22:17.842Z,15.15
2023-05-16T19:24:50.746Z,17.30
2023-05-16T19:27:21.108Z,17.33
2023-05-16T19:29:52.035Z,15.23
2023-05-16T19:32:22.151Z,14.52
2023-05-16T19:34:52.488Z,14.77
2023-05-16T19:37:22.581Z,13.90
2023-05-16T19:39:55.377Z,15.18
2023-05-16T19:42:25.433Z,16.52
2023-05-16T19:44:55.463Z,17.92
2023-05-16T19:47:25.537Z,13.65
2023-05-16T19:49:55.727Z,15.35
2023-05-16T19:52:26.315Z,14.75
2023-05-16T19:54:58.985Z,17.33
2023-05-16T19:57:29.062Z,14.02
2023-05-16T19:59:59.080Z,14.27
2023-05-16T20:02:30.406Z,14.38
2023-05-16T20:05:00.582Z,16.65
2023-05-16T20:07:30.672Z,15.52
2023-05-16T20:10:03.363Z,14.52
2023-05-16T20:12:33.440Z,14.23
2023-05-16T20:15:05.007Z,12.13
2023-05-16T20:17:35.131Z,17.88
2023-05-16T20:20:05.232Z,16.92
2023-05-16T20:22:35.363Z,14.90
2023-05-16T20:25:09.376Z,17.90
2023-05-16T20:27:39.467Z,16.73
2023-05-16T20:30:10.954Z,16.52
2023-05-16T20:32:41.352Z,17.75
2023-05-16T20:35:12.511Z,15.45
2023-05-16T20:37:42.601Z,15.38
2023-05-16T20:40:15.636Z,15.07
2023-05-16T20:42:46.668Z,16.40
2023-05-16T20:45:17.241Z,14.38
2023-05-16T20:47:47.756Z,16.80
2023-05-16T20:50:18.338Z,16.73
2023-05-16T20:52:48.497Z,14.73
2023-05-16T20:55:21.452Z,16.58
2023-05-16T20:57:51.627Z,15.82
2023-05-16T21:00:22.220Z,16.17
2023-05-16T21:02:52.409Z,16.20
2023-05-16T21:05:25.616Z,15.27
2023-05-16T21:07:56.310Z,17.50
2023-05-16T21:10:28.989Z,18.50
2023-05-16T21:12:59.082Z,18.42
2023-05-16T21:15:29.533Z,17.88
2023-05-16T21:17:59.867Z,17.70
2023-05-16T21:20:30.885Z,16.52
2023-05-16T21:23:00.929Z,16.35
2023-05-16T21:25:33.734Z,17.80
2023-05-16T21:28:03.860Z,15.30
2023-05-16T21:30:33.912Z,17.95
2023-05-16T21:33:04.586Z,15.88
2023-05-16T21:35:34.673Z,13.10
2023-05-16T21:38:04.688Z,14.07
2023-05-16T21:40:37.386Z,16.73
2023-05-16T21:43:07.465Z,15.77
2023-05-16T21:45:37.647Z,15.93
2023-05-16T21:48:08.153Z,14.77
2023-05-16T21:50:38.375Z,18.75
2023-05-16T21:53:08.444Z,15.40
2023-05-16T21:55:41.246Z,15.55
2023-05-16T21:58:11.297Z,13.65
2023-05-16T22:00:41.589Z,17.52
2023-05-16T22:03:11.726Z,16.58
2023-05-16T22:05:41.906Z,16.98
2023-05-16T22:08:11.944Z,13.77
2023-05-16T22:10:44.700Z,14.82
2023-05-16T22:13:14.802Z,12.57
2023-05-16T22:15:52.178Z,13.93
2023-05-16T22:18:33.729Z,13.10
2023-05-16T22:21:04.216Z,12.23
2023-05-16T22:23:34.268Z,13.52
2023-05-16T22:26:07.285Z,10.57
2023-05-16T22:28:37.377Z,10.82
2023-05-16T22:31:07.450Z,10.65
2023-05-16T22:33:37.761Z,8.82
2023-05-16T22:36:08.428Z,10.00
2023-05-16T22:38:38.460Z,11.18
2023-05-16T22:41:11.190Z,12.60
2023-05-16T22:43:41.717Z,10.05
2023-05-16T22:46:11.784Z,9.10
2023-05-16T22:48:41.856Z,9.65
2023-05-16T22:51:11.962Z,9.77
2023-05-16T22:53:42.662Z,8.32
2023-05-16T22:56:15.323Z,8.43
2023-05-16T22:58:45.452Z,9.65
2023-05-16T23:01:15.581Z,9.55
2023-05-16T23:03:45.831Z,10.15
2023-05-16T23:06:15.926Z,10.77
2023-05-16T23:08:46.099Z,11.23
2023-05-16T23:11:19.946Z,9.90
2023-05-16T23:13:49.996Z,8.50
2023-05-16T23:16:20.093Z,8.68
2023-05-16T23:18:50.200Z,7.30
2023-05-16T23:21:20.370Z,7.15
2023-05-16T23:23:50.682Z,8.27
2023-05-16T23:26:23.319Z,7.95
2023-05-16T23:28:53.366Z,8.43
2023-05-16T23:31:23.435Z,9.65
2023-05-16T23:33:53.581Z,8.05
2023-05-16T23:36:23.814Z,9.25
2023-05-16T23:38:53.915Z,9.35
2023-05-16T23:41:26.586Z,9.65
2023-05-16T23:43:56.724Z,10.35
2023-05-16T23:46:26.775Z,10.13
2023-05-16T23:48:57.439Z,12.43
2023-05-16T23:51:30.758Z,11.07
2023-05-16T23:54:05.472Z,13.20
2023-05-16T23:56:38.233Z,10.27
2023-05-16T23:59:08.310Z,10.38
